Time;durP1;ratioP1;P1;durP2;ratioP2;P2;SDS_P1;SDS_P2;PMS_P1;PMS_P2;Temp;Humidity;BMP_temperature;BMP_pressure;BME280_temperature;BME280_humidity;BME280_pressure;Samples;Min_cycle;Max_cycle;Signal;HPM_P1;HPM_P2
2023/05/29 00:01:44;;;;;;;5.43;0.80;;;10.70;99.90;;;;;;5073560;28;20048;-63
2023/05/29 00:04:11;;;;;;;3.17;0.60;;;9.60;99.90;;;;;;5073628;28;20039;-63
2023/05/29 00:06:37;;;;;;;4.68;0.95;;;9.60;99.90;;;;;;5073523;28;20467;-63
2023/05/29 00:09:03;;;;;;;11.55;1.00;;;9.60;99.90;;;;;;5073495;28;20116;-63
2023/05/29 00:11:29;;;;;;;3.63;1.00;;;9.60;99.90;;;;;;5073215;28;20037;-63
2023/05/29 00:13:56;;;;;;;3.97;0.85;;;9.90;99.90;;;;;;5055076;28;20056;-63
2023/05/29 00:16:23;;;;;;;1.98;0.65;;;9.50;99.90;;;;;;5073187;28;20046;-63
2023/05/29 00:18:49;;;;;;;4.20;0.85;;;9.50;99.90;;;;;;5073144;28;20443;-63
2023/05/29 00:21:16;;;;;;;5.10;0.93;;;9.50;99.90;;;;;;5073209;28;20072;-63
2023/05/29 00:23:42;;;;;;;8.40;1.10;;;9.50;99.90;;;;;;5071763;28;20040;-63
2023/05/29 00:26:08;;;;;;;10.73;1.20;;;9.50;99.90;;;;;;5073296;28;20396;-63
2023/05/29 00:28:36;;;;;;;3.17;1.02;;;9.50;99.90;;;;;;5073258;28;20036;-63
2023/05/29 00:31:02;;;;;;;0.95;0.52;;;9.50;99.90;;;;;;5072945;28;20048;-63
2023/05/29 00:33:27;;;;;;;7.57;0.93;;;9.40;1.00;;;;;;5073261;28;20068;-63
2023/05/29 00:35:53;;;;;;;5.70;0.80;;;9.40;1.00;;;;;;5072826;28;20123;-63
2023/05/29 00:38:19;;;;;;;4.43;1.13;;;9.40;1.00;;;;;;5072810;28;20079;-63
2023/05/29 00:40:45;;;;;;;4.97;0.90;;;9.40;99.90;;;;;;5072669;28;20044;-63
2023/05/29 00:43:10;;;;;;;1.60;0.70;;;9.40;99.90;;;;;;5073053;28;20093;-63
2023/05/29 00:45:36;;;;;;;2.00;0.73;;;9.40;99.90;;;;;;5072676;28;20043;-63
2023/05/29 00:48:03;;;;;;;5.75;1.08;;;9.90;99.90;;;;;;5073001;28;20043;-63
2023/05/29 00:50:30;;;;;;;4.13;1.38;;;9.30;99.90;;;;;;5072681;28;20408;-63
2023/05/29 00:52:55;;;;;;;7.75;1.00;;;9.30;99.90;;;;;;5072605;28;20040;-63
2023/05/29 00:55:22;;;;;;;4.55;0.77;;;9.90;99.90;;;;;;5055018;28;20048;-63
2023/05/29 00:57:49;;;;;;;2.78;0.95;;;9.20;1.00;;;;;;5071643;28;20044;-63
2023/05/29 01:00:15;;;;;;;3.25;0.85;;;9.20;99.90;;;;;;5054837;28;20069;-63
2023/05/29 01:02:44;;;;;;;2.47;0.65;;;9.20;1.00;;;;;;5072842;28;20171;-63
2023/05/29 01:05:14;;;;;;;8.32;1.30;;;9.20;99.90;;;;;;5072909;28;20037;-63
2023/05/29 01:07:41;;;;;;;3.25;0.80;;;9.20;99.90;;;;;;5072464;28;20040;-63
2023/05/29 01:10:08;;;;;;;2.55;0.98;;;9.20;99.90;;;;;;5072777;28;20045;-63
2023/05/29 01:13:21;;;;;;;5.47;0.60;;;9.20;99.90;;;;;;5072471;28;20427;-64
2023/05/29 01:15:58;;;;;;;1.23;0.70;;;9.10;1.00;;;;;;4991017;28;20053;-63
2023/05/29 01:18:53;;;;;;;6.10;0.85;;;9.10;1.00;;;;;;4991067;28;20054;-63
2023/05/29 01:22:19;;;;;;;5.25;0.80;;;9.10;99.90;;;;;;5056662;28;20047;-63
2023/05/29 01:25:14;;;;;;;4.05;0.80;;;9.10;1.00;;;;;;5026599;28;20060;-63
2023/05/29 01:27:41;;;;;;;3.85;1.00;;;9.10;1.00;;;;;;5072637;28;20032;-63
2023/05/29 01:30:08;;;;;;;6.88;0.90;;;9.10;99.90;;;;;;5072587;28;20080;-63
2023/05/29 01:32:36;;;;;;;1.90;0.80;;;9.10;99.90;;;;;;5072234;28;20450;-63
2023/05/29 01:35:01;;;;;;;6.38;1.15;;;9.00;1.00;;;;;;5072570;28;20051;-63
2023/05/29 01:37:27;;;;;;;2.40;0.70;;;9.00;99.90;;;;;;5072524;28;20489;-63
2023/05/29 01:39:53;;;;;;;9.38;0.82;;;9.00;1.00;;;;;;5054220;28;20044;-63
2023/05/29 01:42:19;;;;;;;3.47;0.93;;;9.00;1.00;;;;;;5072279;28;20055;-63
2023/05/29 01:44:46;;;;;;;2.05;0.80;;;9.00;99.90;;;;;;5072429;28;20094;-63
2023/05/29 01:47:12;;;;;;;6.43;1.02;;;8.90;99.90;;;;;;5072470;28;20525;-63
2023/05/29 01:49:39;;;;;;;4.90;0.90;;;8.90;99.90;;;;;;5072442;28;20040;-63
2023/05/29 01:52:05;;;;;;;13.20;1.38;;;8.90;99.90;;;;;;5072422;28;20033;-63
2023/05/29 01:54:31;;;;;;;3.17;0.90;;;8.90;99.90;;;;;;5072440;28;20040;-62
2023/05/29 01:56:57;;;;;;;4.53;1.08;;;8.90;1.00;;;;;;5072353;28;20499;-63
2023/05/29 01:59:23;;;;;;;1.48;0.80;;;8.90;1.00;;;;;;5072323;28;20110;-63
2023/05/29 02:01:48;;;;;;;3.40;0.60;;;8.80;1.00;;;;;;5072215;28;20040;-63
2023/05/29 02:04:14;;;;;;;4.78;0.90;;;8.80;1.00;;;;;;5071951;28;20032;-63
2023/05/29 02:06:41;;;;;;;2.03;0.98;;;8.80;1.00;;;;;;5072234;28;20032;-63
2023/05/29 02:09:06;;;;;;;9.88;1.33;;;8.80;1.00;;;;;;5074022;28;20048;-63
2023/05/29 02:11:32;;;;;;;5.20;1.30;;;8.70;1.00;;;;;;5040943;28;20131;-63
2023/05/29 02:13:57;;;;;;;4.30;1.15;;;8.70;1.00;;;;;;5075270;28;20045;-63
2023/05/29 02:16:23;;;;;;;2.47;0.68;;;8.70;1.00;;;;;;5075418;28;20549;-63
2023/05/29 02:18:49;;;;;;;6.40;0.80;;;8.60;99.90;;;;;;5075661;28;20055;-63
2023/05/29 02:21:14;;;;;;;3.72;0.93;;;8.70;1.00;;;;;;5075554;28;20037;-63
2023/05/29 02:23:40;;;;;;;3.92;0.65;;;8.60;45.70;;;;;;5075595;28;20037;-63
2023/05/29 02:26:07;;;;;;;2.85;0.93;;;8.60;99.90;;;;;;5075520;28;20036;-63
2023/05/29 02:28:32;;;;;;;2.60;0.98;;;8.60;99.90;;;;;;5075556;28;20042;-63
2023/05/29 02:30:58;;;;;;;2.40;1.15;;;8.70;99.90;;;;;;5075506;28;20033;-63
2023/05/29 02:33:23;;;;;;;5.47;1.02;;;8.50;99.90;;;;;;5075411;28;20028;-63
2023/05/29 02:35:49;;;;;;;7.25;1.17;;;8.50;99.90;;;;;;5075639;28;20048;-63
2023/05/29 02:38:15;;;;;;;3.60;0.70;;;8.50;99.90;;;;;;5075322;28;20045;-63
2023/05/29 02:40:40;;;;;;;3.60;1.02;;;8.40;99.90;;;;;;5056904;28;20080;-63
2023/05/29 02:43:07;;;;;;;5.13;0.80;;;8.40;99.90;;;;;;5075251;28;20369;-63
2023/05/29 02:45:33;;;;;;;7.47;1.02;;;8.40;99.90;;;;;;5075186;28;20032;-63
2023/05/29 02:47:59;;;;;;;3.42;1.05;;;8.30;25.60;;;;;;5075164;28;20067;-63
2023/05/29 02:50:25;;;;;;;4.43;0.95;;;8.30;52.60;;;;;;5075115;28;20041;-64
2023/05/29 02:52:50;;;;;;;3.88;0.95;;;8.30;1.00;;;;;;5074702;28;20538;-63
2023/05/29 02:55:16;;;;;;;9.75;1.30;;;8.30;99.90;;;;;;5074967;28;20127;-64
2023/05/29 02:57:42;;;;;;;1.85;0.70;;;8.20;96.90;;;;;;5074670;28;20459;-63
2023/05/29 03:00:08;;;;;;;3.42;1.30;;;8.10;99.90;;;;;;5074903;28;20051;-63
2023/05/29 03:02:35;;;;;;;3.85;0.93;;;8.10;99.90;;;;;;5074518;28;20032;-63
2023/05/29 03:05:00;;;;;;;4.78;1.02;;;8.10;99.90;;;;;;5056666;28;20408;-63
2023/05/29 03:07:26;;;;;;;2.67;0.85;;;8.10;99.90;;;;;;5074781;28;20036;-63
2023/05/29 03:09:52;;;;;;;4.93;1.10;;;8.10;99.90;;;;;;5056781;28;20048;-63
2023/05/29 03:12:18;;;;;;;3.28;0.85;;;8.10;99.90;;;;;;5074471;28;20500;-63
2023/05/29 03:14:45;;;;;;;4.30;0.80;;;8.10;99.90;;;;;;5074603;28;20045;-63
2023/05/29 03:17:10;;;;;;;2.83;0.70;;;8.00;99.90;;;;;;5074573;28;20032;-63
2023/05/29 03:19:37;;;;;;;3.70;0.80;;;8.00;99.90;;;;;;5073962;28;20040;-63
2023/05/29 03:22:03;;;;;;;5.05;1.10;;;7.90;99.90;;;;;;5074034;28;20040;-63
2023/05/29 03:24:28;;;;;;;2.15;0.90;;;7.90;99.90;;;;;;5056219;28;20040;-63
2023/05/29 03:26:54;;;;;;;4.88;0.95;;;7.90;99.90;;;;;;5074398;28;20036;-63
2023/05/29 03:29:20;;;;;;;5.90;0.90;;;7.90;94.60;;;;;;5074375;28;20032;-63
2023/05/29 03:31:45;;;;;;;3.35;1.00;;;7.90;99.90;;;;;;5074247;28;20450;-63
2023/05/29 03:34:11;;;;;;;1.92;0.80;;;8.10;1.00;;;;;;5074095;28;20040;-64
2023/05/29 03:36:36;;;;;;;3.95;1.00;;;7.90;2.50;;;;;;5073900;28;20036;-63
2023/05/29 03:39:06;;;;;;;3.28;1.13;;;8.00;99.90;;;;;;5074143;28;20086;-62
2023/05/29 03:41:31;;;;;;;6.40;1.15;;;8.00;99.90;;;;;;5055741;28;20098;-63
2023/05/29 03:43:57;;;;;;;3.05;1.02;;;7.90;1.00;;;;;;5073987;28;20481;-63
2023/05/29 03:46:23;;;;;;;6.57;1.33;;;7.90;1.00;;;;;;5073990;28;20475;-63
2023/05/29 03:48:48;;;;;;;5.43;1.00;;;7.90;1.00;;;;;;5073923;28;20036;-64
2023/05/29 03:51:14;;;;;;;3.53;1.23;;;8.00;99.90;;;;;;5055623;28;20123;-63
2023/05/29 03:53:39;;;;;;;4.20;1.05;;;8.00;97.20;;;;;;5073869;28;20437;-63
2023/05/29 03:56:05;;;;;;;3.58;0.90;;;8.10;99.90;;;;;;5073835;28;20569;-63
2023/05/29 03:58:31;;;;;;;2.20;0.70;;;8.10;1.00;;;;;;5055507;28;20063;-63
2023/05/29 04:00:56;;;;;;;2.67;0.77;;;8.10;99.90;;;;;;5073550;28;20076;-63
2023/05/29 04:03:22;;;;;;;4.95;1.20;;;8.10;42.90;;;;;;5073651;28;20119;-63
2023/05/29 04:05:48;;;;;;;6.55;1.23;;;8.10;1.00;;;;;;5055367;28;20550;-63
2023/05/29 04:08:14;;;;;;;0.85;0.50;;;8.10;99.90;;;;;;5073537;28;20045;-63
2023/05/29 04:10:39;;;;;;;5.65;1.02;;;8.20;99.90;;;;;;5073175;28;20044;-63
2023/05/29 04:13:08;;;;;;;3.72;0.85;;;8.20;99.90;;;;;;5073018;28;20064;-63
2023/05/29 04:15:34;;;;;;;4.97;1.02;;;8.30;99.90;;;;;;5073458;28;20381;-63
2023/05/29 04:18:00;;;;;;;3.42;0.98;;;8.30;1.00;;;;;;5073456;28;20123;-63
2023/05/29 04:20:26;;;;;;;8.98;1.13;;;8.40;99.90;;;;;;5073236;28;20028;-63
2023/05/29 04:22:52;;;;;;;5.18;1.08;;;8.50;99.90;;;;;;5073326;28;20040;-63
2023/05/29 04:25:17;;;;;;;3.53;1.25;;;8.50;99.90;;;;;;5073340;28;20039;-63
2023/05/29 04:27:48;;;;;;;3.00;0.77;;;8.60;99.90;;;;;;5073224;28;20369;-63
2023/05/29 04:30:15;;;;;;;4.50;0.88;;;8.60;99.90;;;;;;5072995;28;20090;-63
2023/05/29 04:32:42;;;;;;;3.90;0.88;;;8.60;99.90;;;;;;5072633;28;20049;-63
2023/05/29 04:35:09;;;;;;;4.10;0.95;;;8.70;99.90;;;;;;5055055;28;20044;-63
2023/05/29 04:37:38;;;;;;;3.05;1.20;;;8.80;99.90;;;;;;5072788;28;20041;-63
2023/05/29 04:40:09;;;;;;;4.55;0.90;;;8.90;1.00;;;;;;5054906;28;20080;-63
2023/05/29 04:42:40;;;;;;;2.40;0.90;;;9.00;99.90;;;;;;5072810;28;20041;-63
2023/05/29 04:45:06;;;;;;;3.60;0.60;;;9.10;1.00;;;;;;5073087;28;20546;-63
2023/05/29 04:47:36;;;;;;;2.67;0.65;;;9.20;99.90;;;;;;5072729;28;20036;-63
2023/05/29 04:50:02;;;;;;;3.80;0.85;;;9.50;99.90;;;;;;5073061;28;20040;-63
2023/05/29 04:52:28;;;;;;;2.90;0.90;;;9.40;99.90;;;;;;5055061;28;20033;-63
2023/05/29 04:54:56;;;;;;;3.10;1.02;;;9.50;99.90;;;;;;5072973;28;20082;-63
2023/05/29 04:57:22;;;;;;;1.65;0.68;;;9.60;30.30;;;;;;5072604;28;20044;-63
2023/05/29 04:59:48;;;;;;;12.27;1.00;;;9.60;19.90;;;;;;5072525;28;20037;-63
2023/05/29 05:02:13;;;;;;;4.88;0.80;;;9.70;1.00;;;;;;5072573;28;20105;-63
2023/05/29 05:04:39;;;;;;;3.72;0.82;;;9.80;99.90;;;;;;5054615;28;20072;-63
2023/05/29 05:07:05;;;;;;;4.22;1.10;;;9.80;99.90;;;;;;5072845;28;20578;-63
2023/05/29 05:09:31;;;;;;;3.13;1.00;;;9.90;99.90;;;;;;5072525;28;20043;-63
2023/05/29 05:11:57;;;;;;;7.07;0.65;;;10.00;99.90;;;;;;5072719;28;20040;-63
2023/05/29 05:14:23;;;;;;;4.95;0.85;;;10.10;99.90;;;;;;5072795;28;20063;-63
2023/05/29 05:16:48;;;;;;;3.78;0.90;;;10.20;99.90;;;;;;5072742;28;20063;-64
2023/05/29 05:19:14;;;;;;;2.75;0.60;;;10.20;99.90;;;;;;5072702;28;20062;-63
2023/05/29 05:21:40;;;;;;;2.83;0.90;;;10.30;99.90;;;;;;5072575;28;20484;-62
2023/05/29 05:24:06;;;;;;;1.58;0.77;;;10.30;99.90;;;;;;5072720;28;20427;-62
2023/05/29 05:26:31;;;;;;;3.42;1.35;;;10.40;99.90;;;;;;5054862;28;20032;-63
2023/05/29 05:28:57;;;;;;;7.28;1.27;;;10.40;99.90;;;;;;5072656;28;20112;-63
2023/05/29 05:31:24;;;;;;;6.20;1.08;;;10.40;99.90;;;;;;5054402;28;20469;-62
2023/05/29 05:33:49;;;;;;;3.78;0.95;;;10.50;99.90;;;;;;5072602;28;20142;-62
2023/05/29 05:36:15;;;;;;;6.38;1.20;;;10.60;99.90;;;;;;5072554;28;20044;-64
2023/05/29 05:38:41;;;;;;;2.47;0.75;;;10.70;99.90;;;;;;5072509;28;20174;-62
2023/05/29 05:41:06;;;;;;;6.45;0.90;;;10.90;99.90;;;;;;5072393;28;20558;-63
2023/05/29 05:43:32;;;;;;;4.25;0.82;;;11.00;99.90;;;;;;5073194;28;20133;-63
2023/05/29 05:45:58;;;;;;;5.95;0.90;;;11.00;99.90;;;;;;5076319;28;20481;-63
2023/05/29 05:48:23;;;;;;;3.00;1.10;;;11.10;99.90;;;;;;5075880;28;20036;-63
2023/05/29 05:50:49;;;;;;;2.13;0.85;;;11.30;99.90;;;;;;5058037;28;20048;-63
2023/05/29 05:53:16;;;;;;;4.18;1.00;;;12.10;99.90;;;;;;5057954;28;20416;-63
2023/05/29 05:55:42;;;;;;;2.92;0.85;;;11.50;99.90;;;;;;5076026;28;20106;-63
2023/05/29 05:58:07;;;;;;;3.17;1.23;;;11.60;99.90;;;;;;5076055;28;20480;-62
2023/05/29 06:00:33;;;;;;;5.68;0.90;;;11.70;99.90;;;;;;5075585;28;20098;-63
2023/05/29 06:03:00;;;;;;;1.63;0.80;;;12.00;99.90;;;;;;5075898;28;20040;-62
2023/05/29 06:05:25;;;;;;;4.50;1.00;;;12.00;99.90;;;;;;5075958;28;20040;-63
2023/05/29 06:07:51;;;;;;;3.60;1.52;;;12.00;99.90;;;;;;5075880;28;20089;-62
2023/05/29 06:10:16;;;;;;;7.07;1.33;;;12.10;99.90;;;;;;5075897;28;20107;-63
2023/05/29 06:12:42;;;;;;;2.63;0.90;;;12.10;96.40;;;;;;5075303;28;20132;-62
2023/05/29 06:15:08;;;;;;;3.65;0.73;;;12.10;91.20;;;;;;5075801;28;20076;-62
2023/05/29 06:17:34;;;;;;;3.65;1.17;;;12.20;92.70;;;;;;5075384;28;20044;-62
2023/05/29 06:20:00;;;;;;;4.07;1.52;;;12.30;91.90;;;;;;5075343;28;20123;-62
2023/05/29 06:22:26;;;;;;;4.90;1.48;;;;;;;;;;5040807;28;20124;-62
2023/05/29 06:24:52;;;;;;;4.80;1.10;;;;;;;;;;5057662;28;20472;-63
2023/05/29 06:27:19;;;;;;;2.83;1.17;;;;;;;;;;5075552;28;20400;-63
2023/05/29 06:29:45;;;;;;;7.85;1.02;;;;;;;;;;5075433;28;20056;-63
2023/05/29 06:32:11;;;;;;;6.45;1.42;;;;;;;;;;5075451;28;20040;-62
2023/05/29 06:34:37;;;;;;;4.95;1.27;;;;;;;;;;5075418;28;20053;-63
2023/05/29 06:37:03;;;;;;;4.55;1.17;;;;;;;;;;5075446;28;20638;-63
2023/05/29 06:39:29;;;;;;;3.97;1.10;;;;;;;;;;5057384;28;20404;-63
2023/05/29 06:41:55;;;;;;;6.20;1.15;;;12.70;50.10;;;;;;5075213;28;20426;-62
2023/05/29 06:44:21;;;;;;;4.95;0.80;;;12.80;64.60;;;;;;5075209;28;20037;-63
2023/05/29 06:46:46;;;;;;;4.50;1.20;;;12.90;64.10;;;;;;5075163;28;20028;-62
2023/05/29 06:49:12;;;;;;;2.80;0.98;;;13.00;65.10;;;;;;5075127;28;20086;-62
2023/05/29 06:51:37;;;;;;;6.85;1.38;;;13.00;60.40;;;;;;5075137;28;20043;-62
2023/05/29 06:54:03;;;;;;;3.78;0.98;;;13.10;58.60;;;;;;5074645;28;20107;-62
2023/05/29 06:56:30;;;;;;;4.38;1.13;;;13.10;54.90;;;;;;5074727;28;20079;-62
2023/05/29 06:58:55;;;;;;;2.85;0.90;;;13.50;57.30;;;;;;5075245;28;20119;-62
2023/05/29 07:01:21;;;;;;;3.88;1.00;;;13.10;54.20;;;;;;5074759;28;20120;-62
2023/05/29 07:03:51;;;;;;;4.97;1.30;;;13.10;58.90;;;;;;5074833;28;20032;-62
2023/05/29 07:06:16;;;;;;;8.68;1.38;;;13.40;52.00;;;;;;5074836;28;20484;-62
2023/05/29 07:08:42;;;;;;;6.97;1.42;;;13.70;48.60;;;;;;5074711;28;20053;-62
2023/05/29 07:11:09;;;;;;;6.18;0.95;;;13.10;52.70;;;;;;5074449;28;20507;-63
2023/05/29 07:13:35;;;;;;;3.75;0.90;;;13.10;51.90;;;;;;5074185;28;20551;-63
2023/05/29 07:16:01;;;;;;;8.18;1.35;;;13.20;53.80;;;;;;5074515;28;20033;-63
2023/05/29 07:18:26;;;;;;;5.47;1.30;;;13.30;50.50;;;;;;5056514;28;20059;-63
2023/05/29 07:20:53;;;;;;;10.48;1.42;;;13.30;46.70;;;;;;5074434;28;20045;-63
2023/05/29 07:23:19;;;;;;;3.50;1.23;;;13.30;43.90;;;;;;5074438;28;20393;-62
2023/05/29 07:25:45;;;;;;;7.68;1.00;;;13.30;44.40;;;;;;5074354;28;20039;-62
2023/05/29 07:28:10;;;;;;;4.88;1.17;;;13.30;46.80;;;;;;5074332;28;20549;-62
2023/05/29 07:30:36;;;;;;;3.05;1.08;;;13.30;48.80;;;;;;5074187;28;20094;-63
2023/05/29 07:33:01;;;;;;;4.47;1.17;;;14.00;49.20;;;;;;5074309;28;20039;-62
2023/05/29 07:35:27;;;;;;;4.80;1.20;;;13.40;48.30;;;;;;5074147;28;20041;-62
2023/05/29 07:37:53;;;;;;;4.22;1.20;;;13.60;50.80;;;;;;5074191;28;20040;-62
2023/05/29 07:40:19;;;;;;;6.22;1.33;;;13.70;52.00;;;;;;5073687;28;20044;-63
2023/05/29 07:42:45;;;;;;;3.58;0.88;;;13.70;46.50;;;;;;5074062;28;20086;-63
2023/05/29 07:45:11;;;;;;;7.70;1.02;;;14.80;45.70;;;;;;5074106;28;20454;-63
2023/05/29 07:47:36;;;;;;;9.73;1.33;;;13.60;43.40;;;;;;5074013;28;20036;-62
2023/05/29 07:50:02;;;;;;;8.02;1.52;;;13.60;41.70;;;;;;5073940;28;20451;-62
2023/05/29 07:52:28;;;;;;;6.28;0.95;;;13.60;39.60;;;;;;5073484;28;20370;-63
2023/05/29 07:54:53;;;;;;;3.47;1.05;;;13.60;39.50;;;;;;5055926;28;20044;-62
2023/05/29 07:57:20;;;;;;;5.32;0.95;;;13.80;41.60;;;;;;5073761;28;20037;-63
2023/05/29 07:59:49;;;;;;;1.85;1.08;;;13.80;41.30;;;;;;5055389;28;20055;-62
2023/05/29 08:02:16;;;;;;;7.32;1.23;;;14.00;45.20;;;;;;5073580;28;20083;-63
2023/05/29 08:04:41;;;;;;;5.28;1.30;;;14.10;43.10;;;;;;5056013;28;20476;-63
2023/05/29 08:07:08;;;;;;;3.90;1.08;;;14.10;39.00;;;;;;5073096;28;20125;-63
2023/05/29 08:09:35;;;;;;;5.70;1.40;;;14.10;41.40;;;;;;5055584;28;20040;-63
2023/05/29 08:12:00;;;;;;;6.38;1.10;;;14.80;43.40;;;;;;5073347;28;20091;-63
2023/05/29 08:14:26;;;;;;;3.67;1.17;;;14.30;38.50;;;;;;5073202;28;20465;-63
2023/05/29 08:16:52;;;;;;;6.32;1.00;;;14.40;35.90;;;;;;5073420;28;20109;-63
2023/05/29 08:19:17;;;;;;;3.42;1.27;;;14.40;35.50;;;;;;5073462;28;20443;-62
2023/05/29 08:21:43;;;;;;;4.28;1.30;;;14.80;40.40;;;;;;5072930;28;20099;-62
2023/05/29 08:24:09;;;;;;;5.45;1.42;;;14.60;37.00;;;;;;5073183;28;20044;-63
2023/05/29 08:26:35;;;;;;;2.58;1.00;;;14.80;34.20;;;;;;5072773;28;20476;-62
2023/05/29 08:29:01;;;;;;;2.92;1.35;;;15.10;37.20;;;;;;5073165;28;20036;-63
2023/05/29 08:31:26;;;;;;;4.78;1.27;;;14.90;37.40;;;;;;5073111;28;20067;-63
2023/05/29 08:33:53;;;;;;;9.40;1.20;;;14.90;33.10;;;;;;5073041;28;20044;-62
2023/05/29 08:36:21;;;;;;;7.95;1.30;;;15.00;34.40;;;;;;5073050;28;20446;-62
2023/05/29 08:38:47;;;;;;;6.25;1.30;;;14.90;29.60;;;;;;5073046;28;20056;-62
2023/05/29 08:41:44;;;;;;;4.32;1.25;;;17.10;31.90;;;;;;5054735;28;20044;-62
2023/05/29 08:44:14;;;;;;;4.80;1.40;;;15.00;27.60;;;;;;5057054;28;20040;-63
2023/05/29 08:46:40;;;;;;;2.63;0.70;;;15.20;30.00;;;;;;5072758;28;20051;-63
2023/05/29 08:49:08;;;;;;;7.88;1.20;;;15.20;30.70;;;;;;5072957;28;20033;-62
2023/05/29 08:51:38;;;;;;;3.80;1.02;;;15.70;30.30;;;;;;5073023;28;20403;-63
2023/05/29 08:54:04;;;;;;;3.25;1.27;;;15.20;25.30;;;;;;5072664;28;20043;-62
2023/05/29 08:56:30;;;;;;;4.57;1.20;;;15.30;28.70;;;;;;5072928;28;20037;-63
2023/05/29 08:58:57;;;;;;;3.13;1.15;;;15.30;29.10;;;;;;5072902;28;20036;-62
2023/05/29 09:01:25;;;;;;;6.22;1.30;;;15.20;29.10;;;;;;5072545;28;20404;-63
2023/05/29 09:03:50;;;;;;;4.85;1.13;;;15.30;27.50;;;;;;5072749;28;20047;-63
2023/05/29 09:06:18;;;;;;;3.08;1.02;;;15.30;23.70;;;;;;5072764;28;20044;-62
2023/05/29 09:08:44;;;;;;;3.08;1.00;;;15.80;24.80;;;;;;5072343;28;20082;-63
2023/05/29 09:11:10;;;;;;;3.75;0.90;;;15.20;25.00;;;;;;5072656;28;20385;-62
2023/05/29 09:13:35;;;;;;;4.95;1.10;;;15.10;23.90;;;;;;5072400;28;20060;-63
2023/05/29 09:16:03;;;;;;;4.57;0.98;;;15.00;23.70;;;;;;5072810;28;20049;-63
2023/05/29 09:18:32;;;;;;;5.75;0.80;;;15.00;22.00;;;;;;5073717;28;20044;-63
2023/05/29 09:20:58;;;;;;;4.15;1.30;;;15.00;22.30;;;;;;5076838;28;20045;-64
2023/05/29 09:23:26;;;;;;;6.28;1.33;;;15.00;23.40;;;;;;5076474;28;20036;-64
2023/05/29 09:25:53;;;;;;;4.85;1.00;;;14.90;21.40;;;;;;5076450;28;20072;-64
2023/05/29 09:28:21;;;;;;;4.40;0.80;;;15.00;23.30;;;;;;5076737;28;20086;-63
2023/05/29 09:30:47;;;;;;;6.63;1.50;;;15.20;25.30;;;;;;5076584;28;20037;-63
2023/05/29 09:33:14;;;;;;;6.88;1.30;;;15.30;24.30;;;;;;5076578;28;20377;-63
2023/05/29 09:35:44;;;;;;;2.42;1.23;;;15.30;23.10;;;;;;5076244;28;20090;-63
2023/05/29 09:38:12;;;;;;;2.47;1.20;;;15.30;23.20;;;;;;5076426;28;20044;-64
2023/05/29 09:40:40;;;;;;;12.43;1.45;;;15.50;22.90;;;;;;5058084;28;20115;-64
2023/05/29 09:43:17;;;;;;;2.92;1.10;;;15.50;23.30;;;;;;5076381;28;20079;-64
2023/05/29 09:45:49;;;;;;;5.55;0.90;;;15.50;23.80;;;;;;5076282;28;20101;-63
2023/05/29 09:48:16;;;;;;;2.80;1.02;;;15.50;24.40;;;;;;5076288;28;20044;-63
2023/05/29 09:50:47;;;;;;;4.88;1.17;;;15.50;24.70;;;;;;5076158;28;20132;-63
2023/05/29 09:53:24;;;;;;;4.47;0.90;;;15.60;25.00;;;;;;5075877;28;20059;-63
2023/05/29 09:55:51;;;;;;;6.97;1.13;;;15.50;21.90;;;;;;5057962;28;20057;-64
2023/05/29 09:58:20;;;;;;;3.67;1.45;;;15.60;22.40;;;;;;5058215;28;20072;-63
2023/05/29 10:00:48;;;;;;;3.63;1.48;;;15.50;18.00;;;;;;5075632;28;20045;-62
2023/05/29 10:03:14;;;;;;;1.98;1.08;;;15.60;20.90;;;;;;5057684;28;20040;-63
2023/05/29 10:05:46;;;;;;;2.20;0.90;;;15.60;21.00;;;;;;5075968;28;20039;-63
2023/05/29 10:08:14;;;;;;;6.82;1.23;;;15.60;20.60;;;;;;5075931;28;20397;-62
2023/05/29 10:10:49;;;;;;;2.97;0.85;;;15.60;20.30;;;;;;5075889;28;20396;-63
2023/05/29 10:13:16;;;;;;;5.03;1.05;;;15.60;20.90;;;;;;5074686;28;20049;-63
2023/05/29 10:15:45;;;;;;;2.35;0.98;;;15.60;20.80;;;;;;5074376;28;20060;-62
2023/05/29 10:18:20;;;;;;;1.90;0.73;;;15.80;22.70;;;;;;5074451;28;20504;-63
2023/05/29 10:20:52;;;;;;;8.52;1.35;;;15.80;20.80;;;;;;5074208;28;20043;-63
2023/05/29 10:23:22;;;;;;;6.85;1.27;;;15.70;27.70;;;;;;5074395;28;20121;-63
2023/05/29 10:25:53;;;;;;;3.80;1.00;;;15.70;18.60;;;;;;5074084;28;20078;-63
2023/05/29 10:28:19;;;;;;;4.95;1.35;;;15.70;17.90;;;;;;5074261;28;20428;-63
2023/05/29 10:31:04;;;;;;;8.43;1.55;;;15.60;16.60;;;;;;5073640;28;20044;-65
2023/05/29 10:33:35;;;;;;;5.78;1.27;;;15.70;18.20;;;;;;5074306;28;20052;-65
2023/05/29 10:36:13;;;;;;;6.15;1.20;;;15.80;19.20;;;;;;5074147;28;20395;-63
2023/05/29 10:38:41;;;;;;;5.60;1.17;;;15.70;17.70;;;;;;5073903;28;20119;-62
2023/05/29 10:41:28;;;;;;;5.30;0.98;;;15.70;16.10;;;;;;5074050;28;20028;-62
2023/05/29 10:43:55;;;;;;;3.47;1.00;;;15.70;17.20;;;;;;5074123;28;20063;-64
2023/05/29 10:46:21;;;;;;;4.97;1.75;;;15.80;17.10;;;;;;5073864;28;20066;-64
2023/05/29 10:48:49;;;;;;;3.63;1.05;;;15.90;18.40;;;;;;5056210;28;20048;-64
2023/05/29 10:51:26;;;;;;;2.92;1.17;;;15.70;18.70;;;;;;5074060;28;20040;-64
2023/05/29 10:53:53;;;;;;;5.00;1.50;;;16.20;19.00;;;;;;5074054;28;20426;-64
2023/05/29 10:56:26;;;;;;;4.93;1.45;;;16.00;20.80;;;;;;5074058;28;20037;-64
2023/05/29 10:58:58;;;;;;;5.78;1.23;;;16.00;19.80;;;;;;5072737;28;20052;-64
2023/05/29 11:01:27;;;;;;;11.10;1.48;;;16.10;21.50;;;;;;5073293;28;20143;-64
2023/05/29 11:04:14;;;;;;;6.85;1.45;;;16.20;20.40;;;;;;5073490;28;20037;-64
2023/05/29 11:06:39;;;;;;;4.10;1.55;;;16.20;18.60;;;;;;5072547;28;20480;-64
2023/05/29 11:09:08;;;;;;;2.90;1.10;;;16.10;16.80;;;;;;5073759;28;20094;-65
2023/05/29 11:11:36;;;;;;;7.80;1.08;;;16.10;17.40;;;;;;5073675;28;20400;-64
2023/05/29 11:14:04;;;;;;;4.15;1.73;;;16.10;16.00;;;;;;5037875;28;1048031;-64
2023/05/29 11:16:30;;;;;;;5.88;1.30;;;16.30;17.70;;;;;;5074677;28;20037;-64
2023/05/29 11:19:04;;;;;;;6.15;1.25;;;16.20;17.80;;;;;;5074305;28;20052;-64
2023/05/29 11:21:56;;;;;;;3.38;1.05;;;16.30;18.90;;;;;;5074556;28;20041;-64
2023/05/29 11:24:27;;;;;;;5.57;0.90;;;16.30;17.20;;;;;;5074538;28;20123;-61
2023/05/29 11:26:54;;;;;;;7.85;1.02;;;16.20;18.30;;;;;;5074150;28;20044;-64
2023/05/29 11:29:28;;;;;;;3.97;0.90;;;16.60;18.60;;;;;;5074155;28;20040;-64
2023/05/29 11:32:02;;;;;;;10.05;1.80;;;16.30;18.10;;;;;;5074360;28;20361;-64
2023/05/29 11:34:29;;;;;;;6.18;1.23;;;16.40;17.60;;;;;;5074058;28;20464;-64
2023/05/29 11:36:58;;;;;;;6.88;1.50;;;16.50;17.70;;;;;;5072701;28;20068;-64
2023/05/29 11:39:23;;;;;;;8.57;1.25;;;16.80;18.90;;;;;;5056515;28;20068;-64
2023/05/29 11:41:52;;;;;;;7.10;1.40;;;16.50;18.00;;;;;;5073183;28;20098;-64
2023/05/29 11:44:18;;;;;;;1.83;1.00;;;16.40;17.50;;;;;;5074158;28;20047;-64
2023/05/29 11:46:44;;;;;;;4.15;1.00;;;16.30;19.20;;;;;;5074065;28;20037;-64
2023/05/29 11:49:10;;;;;;;2.30;1.05;;;16.90;18.10;;;;;;5074064;28;20039;-64
2023/05/29 11:51:36;;;;;;;5.43;1.20;;;16.60;18.60;;;;;;5073994;28;20496;-64
2023/05/29 11:54:02;;;;;;;2.75;0.90;;;16.10;16.50;;;;;;5073945;28;20055;-64
2023/05/29 11:56:29;;;;;;;4.63;0.73;;;16.40;17.90;;;;;;5073828;28;20408;-65
2023/05/29 11:58:57;;;;;;;11.65;1.58;;;16.40;15.10;;;;;;5073569;28;20036;-64
2023/05/29 12:01:24;;;;;;;2.78;0.98;;;15.80;13.10;;;;;;5073733;28;20488;-64
2023/05/29 12:03:50;;;;;;;6.10;1.25;;;16.20;14.50;;;;;;5073756;28;20093;-64
2023/05/29 12:06:16;;;;;;;5.22;1.20;;;16.20;15.40;;;;;;5073609;28;20036;-64
2023/05/29 12:08:41;;;;;;;5.40;1.00;;;16.10;15.30;;;;;;5073678;28;20093;-63
2023/05/29 12:11:08;;;;;;;3.80;1.05;;;16.30;16.00;;;;;;5073628;28;20036;-64
2023/05/29 12:13:33;;;;;;;2.40;0.77;;;16.40;14.80;;;;;;5073108;28;20049;-64
2023/05/29 12:16:02;;;;;;;2.67;0.85;;;16.40;15.10;;;;;;5073581;28;20036;-64
2023/05/29 12:18:29;;;;;;;2.03;0.93;;;16.10;11.60;;;;;;5073458;28;20124;-64
2023/05/29 12:21:02;;;;;;;3.22;1.17;;;16.10;11.40;;;;;;5073396;28;20036;-64
2023/05/29 12:23:29;;;;;;;2.90;1.02;;;16.10;10.70;;;;;;5073312;28;20124;-64
2023/05/29 12:25:55;;;;;;;3.92;0.98;;;16.20;11.70;;;;;;5073389;28;20040;-64
2023/05/29 12:28:22;;;;;;;5.18;0.93;;;16.10;12.40;;;;;;5073346;28;20036;-64
2023/05/29 12:30:49;;;;;;;2.55;0.77;;;16.20;10.80;;;;;;5072944;28;20069;-64
2023/05/29 12:33:31;;;;;;;3.20;0.95;;;16.20;10.70;;;;;;5055088;28;20052;-64
2023/05/29 12:36:09;;;;;;;3.58;1.00;;;16.10;9.20;;;;;;5073004;28;20080;-64
2023/05/29 12:38:51;;;;;;;2.70;1.08;;;16.20;9.20;;;;;;5073131;28;20033;-64
2023/05/29 12:41:26;;;;;;;7.45;1.38;;;16.10;8.00;;;;;;5072838;28;20128;-64
2023/05/29 12:43:58;;;;;;;3.22;1.00;;;16.10;9.20;;;;;;5072909;28;20048;-64
2023/05/29 12:46:27;;;;;;;4.80;1.30;;;16.30;11.20;;;;;;5073096;28;20032;-64
2023/05/29 12:48:56;;;;;;;3.30;0.98;;;16.30;10.30;;;;;;5072756;28;20068;-64
2023/05/29 12:51:28;;;;;;;4.85;1.00;;;16.30;10.20;;;;;;5072828;28;20047;-64
2023/05/29 12:53:54;;;;;;;5.40;1.42;;;16.30;10.40;;;;;;5072576;28;20040;-64
2023/05/29 12:56:23;;;;;;;4.63;1.02;;;16.90;10.60;;;;;;5072978;28;20053;-64
2023/05/29 12:58:51;;;;;;;4.32;1.30;;;16.40;20.50;;;;;;5072638;28;20039;-64